Hauptseite
METAR-TAF:

METAR-TAF

Flughäfen :

Le Touquet, Frankreich

Flughafen Touquet-Côte d’Opale

Breite: 50-30-53N, Länge: 001-37-39E, Höhe: 6 m

Beobachtung

Neuester Wetterbericht von vor 37 Minuten, um 01:00 UTC
Wind 11 kt aus Ost, variierte zwischen Nordost und Ost/Südost
Temperatur 0°C
Luftfeuchtigkeit 59%
Luftdruck 1023 hPa
Sichtweite 10 km oder mehr
keine Wolken unter 1500 m und keine Kumulonimbus oder Gewitterwolken

METAR: LFAT 250100Z AUTO 09011KT 050V120 CAVOK M00/M07 Q1023

Zeit: 02:37 (01:37 UTC)

Prognose

Neuester Wetterbericht von vor 11 Stunden und 37 Minuten, um 14:00 UTC
Gültige Prognose vom 24 um 15 UTC bis 24 um 24 UTC
Wind 12 kt aus Ost
Sichtweite 10 km oder mehr
keine Wolken unter 1500 m und keine Kumulonimbus oder Gewitterwolken

TAF: LFAT 241400Z 2415/2424 09012KT CAVOK

Wetterbeobachtungen und Prognosen von mehr als 4000 Flughäfen (METAR und TAF Bericht).

Die verfügbaren Stationen werden durch gelbe und rote Markierungen auf der Karte dargestellt.

Führen Sie die Maus auf sie, um den Namen der Station zu sehen.

Darauf klicken, um die Beobachtung von Wetterbeobachtungen und Prognosen zu sehen.

Um die Karte zu ändern : klicken Sie auf den grünen Tasten mit einem schwarzen Kreuz Zum Vergrößern, auf den grünen Button mit einem Gedankenstrich zu verkleinern, oder auf die grünen Pfeile für benachbarte Karten.


METAR-TAF: